SWA3211 KMCO-KSTL
Flight info
| Callsign | SWA3211 |
|---|---|
| Flight time | N/A |
| Altitude | 40000 |
| Route | RDSOX1 JFRYS PATOY Q116 VLKNN GETME J151 VISQA BOOSH3 |
| Aircraft | B738/M-SADE2E3GIJ4RWZ/LB1D1 |
Departure
| Time | 2026-05-04 23:23 |
|---|---|
| Airport | Orlando International Airport (KMCO) |
Arrival
| Time | N/A |
|---|---|
| Airport | St. Louis Lambert International Airport (KSTL) |
| Time | Latitude | Longitude | Altitude | Speed | Heading |
|---|---|---|---|---|---|
| 2026-05-04 22:55 | 28.43585 | -81.30376 | 100 ft | 0 kts | 131° |
| 2026-05-04 23:07 | 28.43584 | -81.30375 | 100 ft | 3 kts | 132° |
| 2026-05-04 23:07 | 28.43595 | -81.30388 | 100 ft | 3 kts | 124° |
| 2026-05-04 23:07 | 28.43603 | -81.30406 | 99 ft | 3 kts | 85° |
| 2026-05-04 23:07 | 28.43597 | -81.30425 | 97 ft | 3 kts | 48° |
| 2026-05-04 23:08 | 28.43583 | -81.30440 | 98 ft | 2 kts | 38° |
| 2026-05-04 23:08 | 28.43577 | -81.30446 | 100 ft | 1 kts | 38° |
| 2026-05-04 23:12 | 28.43582 | -81.30441 | 100 ft | 2 kts | 39° |
| 2026-05-04 23:12 | 28.43603 | -81.30422 | 100 ft | 5 kts | 39° |
| 2026-05-04 23:12 | 28.43635 | -81.30387 | 99 ft | 7 kts | 49° |
| 2026-05-04 23:13 | 28.43669 | -81.30338 | 98 ft | 9 kts | 53° |
| 2026-05-04 23:13 | 28.43720 | -81.30288 | 100 ft | 11 kts | 30° |
| 2026-05-04 23:13 | 28.43797 | -81.30256 | 100 ft | 13 kts | 2° |
| 2026-05-04 23:13 | 28.43892 | -81.30270 | 100 ft | 15 kts | 325° |
| 2026-05-04 23:14 | 28.43915 | -81.30388 | 100 ft | 17 kts | 273° |
| 2026-05-04 23:14 | 28.43923 | -81.30535 | 99 ft | 21 kts | 274° |
| 2026-05-04 23:14 | 28.43933 | -81.30704 | 120 ft | 21 kts | 274° |
| 2026-05-04 23:14 | 28.43942 | -81.30858 | 117 ft | 20 kts | 272° |
| 2026-05-04 23:15 | 28.43942 | -81.31077 | 118 ft | 29 kts | 268° |
| 2026-05-04 23:15 | 28.43932 | -81.31301 | 102 ft | 28 kts | 266° |
| 2026-05-04 23:15 | 28.43924 | -81.31501 | 101 ft | 23 kts | 271° |
| 2026-05-04 23:15 | 28.43923 | -81.31685 | 103 ft | 22 kts | 269° |
| 2026-05-04 23:16 | 28.43920 | -81.31814 | 107 ft | 10 kts | 256° |
| 2026-05-04 23:16 | 28.43857 | -81.31846 | 106 ft | 12 kts | 181° |
| 2026-05-04 23:16 | 28.43762 | -81.31846 | 105 ft | 16 kts | 179° |
| 2026-05-04 23:16 | 28.43634 | -81.31844 | 104 ft | 20 kts | 181° |
| 2026-05-04 23:17 | 28.43485 | -81.31843 | 103 ft | 23 kts | 179° |
| 2026-05-04 23:17 | 28.43326 | -81.31842 | 100 ft | 20 kts | 179° |
| 2026-05-04 23:17 | 28.43188 | -81.31840 | 101 ft | 19 kts | 179° |
| 2026-05-04 23:17 | 28.43057 | -81.31839 | 102 ft | 18 kts | 180° |
| 2026-05-04 23:18 | 28.42947 | -81.31838 | 101 ft | 14 kts | 178° |
| 2026-05-04 23:18 | 28.42854 | -81.31837 | 102 ft | 13 kts | 180° |
| 2026-05-04 23:18 | 28.42764 | -81.31836 | 104 ft | 13 kts | 179° |
| 2026-05-04 23:18 | 28.42675 | -81.31834 | 106 ft | 14 kts | 180° |
| 2026-05-04 23:19 | 28.42565 | -81.31833 | 106 ft | 18 kts | 178° |
| 2026-05-04 23:19 | 28.42428 | -81.31831 | 104 ft | 18 kts | 179° |
| 2026-05-04 23:19 | 28.42307 | -81.31830 | 106 ft | 20 kts | 181° |
| 2026-05-04 23:19 | 28.42171 | -81.31859 | 106 ft | 21 kts | 194° |
| 2026-05-04 23:20 | 28.42041 | -81.31877 | 103 ft | 21 kts | 180° |
| 2026-05-04 23:20 | 28.41883 | -81.31876 | 102 ft | 21 kts | 179° |
| 2026-05-04 23:20 | 28.41763 | -81.31874 | 101 ft | 17 kts | 179° |
| 2026-05-04 23:20 | 28.41644 | -81.31873 | 99 ft | 17 kts | 179° |
| 2026-05-04 23:21 | 28.41556 | -81.31897 | 98 ft | 13 kts | 232° |
| 2026-05-04 23:21 | 28.41546 | -81.31997 | 99 ft | 13 kts | 268° |
| 2026-05-04 23:21 | 28.41542 | -81.32097 | 100 ft | 13 kts | 268° |
| 2026-05-04 23:21 | 28.41564 | -81.32187 | 100 ft | 13 kts | 326° |
| 2026-05-04 23:22 | 28.41589 | -81.32194 | 101 ft | 1 kts | 354° |
| 2026-05-04 23:22 | 28.41681 | -81.32196 | 100 ft | 41 kts | 0° |
| 2026-05-04 23:22 | 28.42205 | -81.32202 | 106 ft | 107 kts | 359° |
| 2026-05-04 23:22 | 28.43139 | -81.32202 | 105 ft | 160 kts | 5° |
| 2026-05-04 23:23 | 28.44324 | -81.32246 | 512 ft | 179 kts | 6° |
| 2026-05-04 23:23 | 28.45630 | -81.32287 | 1104 ft | 193 kts | 3° |
| 2026-05-04 23:23 | 28.46945 | -81.32304 | 1993 ft | 184 kts | 5° |
| 2026-05-04 23:23 | 28.48248 | -81.32286 | 2312 ft | 190 kts | 6° |
| 2026-05-04 23:24 | 28.49574 | -81.32246 | 2289 ft | 191 kts | 5° |
| 2026-05-04 23:24 | 28.50888 | -81.32263 | 2316 ft | 189 kts | 1° |
| 2026-05-04 23:24 | 28.52321 | -81.32361 | 2673 ft | 221 kts | 359° |
| 2026-05-04 23:24 | 28.53885 | -81.32662 | 3599 ft | 234 kts | 347° |
| 2026-05-04 23:25 | 28.55393 | -81.33142 | 4983 ft | 216 kts | 339° |
| 2026-05-04 23:25 | 28.56718 | -81.33768 | 6114 ft | 198 kts | 332° |
| 2026-05-04 23:25 | 28.57999 | -81.34420 | 6688 ft | 204 kts | 332° |
| 2026-05-04 23:25 | 28.59220 | -81.35265 | 6965 ft | 214 kts | 308° |
| 2026-05-04 23:26 | 28.59803 | -81.36852 | 7025 ft | 230 kts | 273° |
| 2026-05-04 23:26 | 28.59822 | -81.38753 | 7011 ft | 245 kts | 267° |
| 2026-05-04 23:26 | 28.59761 | -81.40703 | 7010 ft | 247 kts | 266° |
| 2026-05-04 23:26 | 28.59712 | -81.42651 | 6987 ft | 246 kts | 268° |
| 2026-05-04 23:27 | 28.59680 | -81.44590 | 6981 ft | 249 kts | 268° |
| 2026-05-04 23:27 | 28.59655 | -81.46566 | 7004 ft | 252 kts | 268° |
| 2026-05-04 23:27 | 28.59630 | -81.48620 | 7045 ft | 265 kts | 267° |
| 2026-05-04 23:27 | 28.59239 | -81.50682 | 7574 ft | 270 kts | 246° |
| 2026-05-04 23:28 | 28.58457 | -81.52607 | 8455 ft | 266 kts | 245° |
| 2026-05-04 23:28 | 28.57676 | -81.54532 | 9254 ft | 269 kts | 246° |
| 2026-05-04 23:28 | 28.56889 | -81.56474 | 10046 ft | 271 kts | 246° |
| 2026-05-04 23:28 | 28.56096 | -81.58440 | 10726 ft | 276 kts | 246° |
| 2026-05-04 23:29 | 28.55290 | -81.60440 | 11403 ft | 280 kts | 246° |
| 2026-05-04 23:29 | 28.54473 | -81.62472 | 12110 ft | 285 kts | 246° |
| 2026-05-04 23:29 | 28.53644 | -81.64533 | 12848 ft | 289 kts | 247° |
| 2026-05-04 23:29 | 28.52804 | -81.66628 | 13619 ft | 291 kts | 246° |
| 2026-05-04 23:30 | 28.51954 | -81.68743 | 14318 ft | 296 kts | 246° |